New Smyrna Beach, Florida
Current Conditions -  °F | °C
As of 3:53 PM on Sunday 23 Nov 2014 (Local Time) from KDAB Reporting Station
Broken Clouds Broken Clouds  
Wind Chill: 84°   Ceiling: 25000
Heat Index: 88°   Visibility: 10mi
Dew Point: 69°   Wind: 13mph
Humidity: 61%   Direction: 190°S
Pressure: 29.88"   Gusts: 24mph
Location:  29.03°N, 80.92°W
Report Text: KDAB 232053Z 19011G21KT 10SM SCT036 SCT050 BKN250 29/21 A2988 RMK AO2 SLP116 T02890206 55020
Loading
Personal Weather Stations






























Interactive Weather Map New forecast layout! Learn more

10-Day Weather Forecast

Advertisements
Track Severe Weather on mobile